createdAt,value
2023-05-17T00:01:01.979Z,19.04
2023-05-17T00:05:55.234Z,19.06
2023-05-17T00:10:49.852Z,18.76
2023-05-17T00:15:43.025Z,18.66
2023-05-17T00:20:36.720Z,18.77
2023-05-17T00:25:30.134Z,18.56
2023-05-17T00:30:24.872Z,18.52
2023-05-17T00:35:18.101Z,18.53
2023-05-17T00:40:12.966Z,18.42
2023-05-17T00:45:07.443Z,18.47
2023-05-17T00:50:02.329Z,18.34
2023-05-17T00:54:55.585Z,18.33
2023-05-17T00:59:48.894Z,17.99
2023-05-17T01:04:42.763Z,18.06
2023-05-17T01:09:37.897Z,17.87
2023-05-17T01:14:42.868Z,17.80
2023-05-17T01:19:51.517Z,17.67
2023-05-17T01:24:54.155Z,17.60
2023-05-17T01:29:50.849Z,17.48
2023-05-17T01:34:44.266Z,17.22
2023-05-17T01:39:37.511Z,17.28
2023-05-17T01:44:39.338Z,17.03
2023-05-17T01:49:38.822Z,17.03
2023-05-17T01:54:38.160Z,16.93
2023-05-17T01:59:36.206Z,16.82
2023-05-17T02:04:31.309Z,16.66
2023-05-17T02:09:29.333Z,16.57
2023-05-17T02:14:22.527Z,16.39
2023-05-17T02:19:15.708Z,16.43
2023-05-17T02:24:08.868Z,16.35
2023-05-17T02:29:03.345Z,16.32
2023-05-17T02:33:57.784Z,16.23
2023-05-17T02:38:50.961Z,16.31
2023-05-17T02:43:44.056Z,16.15
2023-05-17T02:48:38.662Z,16.11
2023-05-17T02:53:31.810Z,16.10
2023-05-17T02:58:28.127Z,15.79
2023-05-17T03:03:24.738Z,15.82
2023-05-17T03:08:19.514Z,16.02
2023-05-17T03:13:13.777Z,15.74
2023-05-17T03:18:07.096Z,15.83
2023-05-17T03:23:02.194Z,15.71
2023-05-17T03:27:56.962Z,15.71
2023-05-17T03:32:50.499Z,15.66
2023-05-17T03:37:43.719Z,15.60
2023-05-17T03:42:37.058Z,15.48
2023-05-17T03:47:32.533Z,15.57
2023-05-17T03:52:26.193Z,15.60
2023-05-17T03:57:19.759Z,15.61
2023-05-17T04:02:12.938Z,15.66
2023-05-17T04:07:08.685Z,15.72
2023-05-17T04:12:02.668Z,15.63
2023-05-17T04:16:56.383Z,15.82
2023-05-17T04:21:52.198Z,15.86
2023-05-17T04:26:49.922Z,15.87
2023-05-17T04:31:47.187Z,15.90
2023-05-17T04:36:40.418Z,15.88
2023-05-17T04:41:34.338Z,15.92
2023-05-17T04:46:31.235Z,16.10
2023-05-17T04:51:24.626Z,16.07
2023-05-17T04:56:18.308Z,16.20
2023-05-17T05:01:12.129Z,16.05
2023-05-17T05:06:07.935Z,16.09
2023-05-17T05:11:02.290Z,16.04
2023-05-17T05:15:56.934Z,16.22
2023-05-17T05:20:51.272Z,16.27
2023-05-17T05:25:47.537Z,16.01
2023-05-17T05:30:41.097Z,16.16
2023-05-17T05:35:37.549Z,16.29
2023-05-17T05:40:31.093Z,16.48
2023-05-17T05:45:25.936Z,16.47
2023-05-17T05:50:23.136Z,16.47
2023-05-17T05:55:19.973Z,16.58
2023-05-17T06:00:14.516Z,16.67
2023-05-17T06:05:10.166Z,16.73
2023-05-17T06:10:03.498Z,16.65
2023-05-17T06:14:56.959Z,16.82
2023-05-17T06:19:50.366Z,16.82
2023-05-17T06:24:46.054Z,17.05
2023-05-17T06:29:39.337Z,16.65
2023-05-17T06:34:35.162Z,17.21
2023-05-17T06:39:28.813Z,17.47
2023-05-17T06:44:26.120Z,17.52
2023-05-17T06:49:19.244Z,17.56
2023-05-17T06:54:12.454Z,17.50
2023-05-17T06:59:05.597Z,17.48
2023-05-17T07:04:00.273Z,17.63
2023-05-17T07:08:53.889Z,17.69
2023-05-17T07:13:47.107Z,17.72
2023-05-17T07:18:40.367Z,17.70
2023-05-17T07:23:34.976Z,17.80
2023-05-17T07:28:28.263Z,17.70
2023-05-17T07:33:21.465Z,17.78
2023-05-17T07:38:16.646Z,17.77
2023-05-17T07:43:11.277Z,17.71
2023-05-17T07:48:04.602Z,17.82
2023-05-17T07:52:58.555Z,17.84
2023-05-17T07:57:52.670Z,17.86
2023-05-17T08:02:47.357Z,18.04
2023-05-17T08:07:45.656Z,17.68
2023-05-17T08:12:39.956Z,18.05
2023-05-17T08:17:34.037Z,18.21
2023-05-17T08:22:28.612Z,17.84
2023-05-17T08:27:22.220Z,18.16
2023-05-17T08:32:16.516Z,18.17
2023-05-17T08:37:10.201Z,18.11
2023-05-17T08:42:12.070Z,18.01
2023-05-17T08:47:05.620Z,17.96
2023-05-17T08:52:10.058Z,18.07
2023-05-17T08:57:09.135Z,18.16
2023-05-17T09:02:04.044Z,18.23
2023-05-17T09:06:57.222Z,18.28
2023-05-17T09:11:50.405Z,18.33
2023-05-17T09:16:46.067Z,18.36
2023-05-17T09:21:39.701Z,18.34
2023-05-17T09:26:41.591Z,18.39
2023-05-17T09:31:35.190Z,18.33
2023-05-17T09:36:29.738Z,18.17
2023-05-17T09:41:23.518Z,18.17
2023-05-17T09:46:17.135Z,18.11
2023-05-17T09:51:10.254Z,18.05
2023-05-17T09:56:08.155Z,17.98
2023-05-17T10:01:04.883Z,17.88
2023-05-17T10:05:59.710Z,17.59
2023-05-17T10:10:55.779Z,17.77
2023-05-17T10:15:54.052Z,17.84
2023-05-17T10:20:48.594Z,17.94
2023-05-17T10:25:46.304Z,17.95
2023-05-17T10:30:40.754Z,17.82
2023-05-17T10:35:36.229Z,17.99
2023-05-17T10:40:32.199Z,17.96
2023-05-17T10:45:27.268Z,18.08
2023-05-17T10:50:24.400Z,18.09
2023-05-17T10:55:25.039Z,18.11
2023-05-17T11:00:22.134Z,18.06
2023-05-17T11:05:25.125Z,18.14
2023-05-17T11:10:18.602Z,17.87
2023-05-17T11:15:14.444Z,18.06
2023-05-17T11:20:16.655Z,17.88
2023-05-17T11:25:12.654Z,17.84
2023-05-17T11:30:17.229Z,17.87
2023-05-17T11:35:14.655Z,17.95
2023-05-17T11:40:13.469Z,17.94
2023-05-17T11:45:12.026Z,18.07
2023-05-17T11:50:07.933Z,18.07
2023-05-17T11:55:07.750Z,17.88
2023-05-17T12:00:01.688Z,18.19
2023-05-17T12:04:54.954Z,18.36
2023-05-17T12:09:50.351Z,18.36
2023-05-17T12:14:48.358Z,18.35
2023-05-17T12:19:42.622Z,18.35
2023-05-17T12:24:43.452Z,18.33
2023-05-17T12:29:38.406Z,18.48
2023-05-17T12:34:34.396Z,18.60
2023-05-17T12:39:27.789Z,18.74
2023-05-17T12:44:24.264Z,18.83
2023-05-17T12:49:22.077Z,18.88
2023-05-17T12:54:26.308Z,18.91
2023-05-17T12:59:25.713Z,19.03
2023-05-17T13:04:22.191Z,19.40
2023-05-17T13:09:19.948Z,19.40
2023-05-17T13:14:15.487Z,19.70
2023-05-17T13:19:19.654Z,19.70
2023-05-17T13:24:17.314Z,19.53
2023-05-17T13:29:10.566Z,19.52
2023-05-17T13:34:03.992Z,19.45
2023-05-17T13:39:02.875Z,19.68
2023-05-17T13:43:59.846Z,19.58
2023-05-17T13:48:53.513Z,19.79
2023-05-17T13:53:47.032Z,19.90
2023-05-17T13:58:40.291Z,19.82
2023-05-17T14:03:35.320Z,19.79
2023-05-17T14:08:39.581Z,19.72
2023-05-17T14:13:55.653Z,19.82
2023-05-17T14:18:50.387Z,19.52
2023-05-17T14:23:43.854Z,19.74
2023-05-17T14:28:46.383Z,19.70
2023-05-17T14:33:39.628Z,19.68
2023-05-17T14:38:34.364Z,19.64
2023-05-17T14:43:28.236Z,19.59
2023-05-17T14:48:21.819Z,19.54
2023-05-17T14:53:15.199Z,19.35
2023-05-17T14:58:14.171Z,19.54
2023-05-17T15:03:07.533Z,19.52
2023-05-17T15:08:02.355Z,19.45
2023-05-17T15:12:55.432Z,19.48
2023-05-17T15:17:51.955Z,19.37
2023-05-17T15:22:47.271Z,19.38
2023-05-17T15:27:40.992Z,19.37
2023-05-17T15:32:35.274Z,19.36
2023-05-17T15:37:29.794Z,19.20
2023-05-17T15:42:22.952Z,19.36
2023-05-17T15:47:16.127Z,19.32
2023-05-17T15:52:09.415Z,19.24
2023-05-17T15:57:03.899Z,19.24
2023-05-17T16:01:57.093Z,19.19
2023-05-17T16:06:50.221Z,19.32
2023-05-17T16:11:43.520Z,19.37
2023-05-17T16:16:38.021Z,19.40
2023-05-17T16:21:31.361Z,19.31
2023-05-17T16:26:25.219Z,18.56
2023-05-17T16:31:18.452Z,19.29
2023-05-17T16:36:13.067Z,19.17
2023-05-17T16:41:06.210Z,19.09
2023-05-17T16:45:59.453Z,19.12
2023-05-17T16:50:52.548Z,18.96
2023-05-17T16:55:47.161Z,19.03
2023-05-17T17:00:40.569Z,18.93
2023-05-17T17:05:33.698Z,18.87
2023-05-17T17:10:26.868Z,18.75
2023-05-17T17:15:24.229Z,18.79
2023-05-17T17:20:17.765Z,18.74
2023-05-17T17:25:12.471Z,18.52
2023-05-17T17:30:06.528Z,18.65
2023-05-17T17:35:01.183Z,18.61
2023-05-17T17:39:54.354Z,18.40
2023-05-17T17:44:47.608Z,18.64
2023-05-17T17:49:50.018Z,18.48
2023-05-17T17:54:46.140Z,18.71
2023-05-17T17:59:39.608Z,18.74
2023-05-17T18:04:32.814Z,18.75
2023-05-17T18:09:26.044Z,18.84
2023-05-17T18:14:21.822Z,18.83
2023-05-17T18:19:15.071Z,18.82
2023-05-17T18:24:09.155Z,18.80
2023-05-17T18:29:02.838Z,18.73
2023-05-17T18:33:59.959Z,18.71
2023-05-17T18:38:55.368Z,18.69
2023-05-17T18:43:48.534Z,18.65
2023-05-17T18:48:41.675Z,18.64
2023-05-17T18:53:36.832Z,18.65
2023-05-17T18:58:30.176Z,18.63
2023-05-17T19:03:23.812Z,18.62
2023-05-17T19:08:24.234Z,18.57
2023-05-17T19:13:18.705Z,18.42
2023-05-17T19:18:14.992Z,18.51
2023-05-17T19:23:08.218Z,18.50
2023-05-17T19:28:04.294Z,18.40
2023-05-17T19:33:05.829Z,18.36
2023-05-17T19:38:00.170Z,18.40
2023-05-17T19:42:56.144Z,18.37
2023-05-17T19:47:49.419Z,18.17
2023-05-17T19:52:43.898Z,18.05
2023-05-17T19:57:37.050Z,17.83
2023-05-17T20:02:30.515Z,17.70
2023-05-17T20:07:25.960Z,17.42
2023-05-17T20:12:20.676Z,17.39
2023-05-17T20:17:14.686Z,17.23
2023-05-17T20:22:07.951Z,17.17
2023-05-17T20:27:01.219Z,17.11
2023-05-17T20:31:58.821Z,17.07
2023-05-17T20:36:52.065Z,17.06
2023-05-17T20:41:45.184Z,17.03
2023-05-17T20:46:38.692Z,17.01
2023-05-17T20:51:33.277Z,16.91
2023-05-17T21:03:39.805Z,16.20
2023-05-17T21:08:36.625Z,16.42
2023-05-17T21:13:29.701Z,16.92
2023-05-17T21:18:23.446Z,16.95
2023-05-17T21:23:16.628Z,16.94
2023-05-17T21:28:13.469Z,16.87
2023-05-17T21:39:17.388Z,16.43
2023-05-17T21:44:11.852Z,16.80
2023-05-17T21:49:05.058Z,16.79
2023-05-17T21:53:58.259Z,16.79
2023-05-17T21:58:52.386Z,16.85
2023-05-17T22:03:47.771Z,16.83
2023-05-17T22:08:42.367Z,16.82
2023-05-17T22:13:35.468Z,16.79
2023-05-17T22:18:32.257Z,16.79
2023-05-17T22:23:26.964Z,16.78
2023-05-17T22:28:20.134Z,16.68
2023-05-17T22:33:13.513Z,16.69
2023-05-17T22:38:06.664Z,16.62
2023-05-17T22:43:01.412Z,16.50
2023-05-17T22:47:54.612Z,16.49
2023-05-17T22:52:50.799Z,16.39
2023-05-17T22:57:44.010Z,16.12
2023-05-17T23:02:38.592Z,16.27
2023-05-17T23:07:38.194Z,16.24
2023-05-17T23:12:31.665Z,16.21
2023-05-17T23:17:24.889Z,16.21
2023-05-17T23:22:19.847Z,16.16
2023-05-17T23:27:14.084Z,16.22
2023-05-17T23:32:07.366Z,16.20
2023-05-17T23:37:00.404Z,16.22
2023-05-17T23:41:54.954Z,16.18
2023-05-17T23:46:48.059Z,16.13
2023-05-17T23:51:41.318Z,16.12
2023-05-17T23:56:34.361Z,16.04
